Salt Lake City, Utah
Traffic Map
Current Weather Conditions
Salt Lake City, Utah
Scattered Clouds
Scattered Clouds
83°
Feels Like: 83°
Wind Chill: 83° Ceiling: Unl
Heat Index: 83° Visibility: 10mi
Dew Point: 42° Wind: 10mph
Humidity: 24% Direction: 130° (SE)
Pressure: 30.13in Gusts: 0mph
Raw Report DataKSLC 231453Z 13009KT 10SM FEW090 SCT130 28/06 A3013 RMK AO2 SLP138 FU FEW090 FU DSNT SW-NW TCU DSNT SE T02830056 53009
Traffic Incident Summary
Active as of:
Severity:
Category:
InformationThere was an issue retrieving the traffic information for this location. Please try a different location or try again shortly.
Advertisements
Track Severe Weather on mobile